createdAt,value
2022-10-09T00:01:46.043Z,12.24
2022-10-09T00:04:13.315Z,12.18
2022-10-09T00:06:40.312Z,12.16
2022-10-09T00:09:07.532Z,12.24
2022-10-09T00:11:34.988Z,12.30
2022-10-09T00:14:02.943Z,12.28
2022-10-09T00:16:30.158Z,12.30
2022-10-09T00:18:58.319Z,12.28
2022-10-09T00:21:30.455Z,12.22
2022-10-09T00:23:59.390Z,12.18
2022-10-09T00:26:27.167Z,12.15
2022-10-09T00:28:54.588Z,12.12
2022-10-09T00:31:22.683Z,12.12
2022-10-09T00:33:49.794Z,12.07
2022-10-09T00:36:21.788Z,12.05
2022-10-09T00:38:49.627Z,12.10
2022-10-09T00:41:26.499Z,12.18
2022-10-09T00:43:56.696Z,12.18
2022-10-09T00:46:41.947Z,12.29
2022-10-09T00:49:17.534Z,12.29
2022-10-09T00:51:46.307Z,12.30
2022-10-09T00:54:15.792Z,12.31
2022-10-09T00:56:42.987Z,12.28
2022-10-09T00:59:11.174Z,12.23
2022-10-09T01:01:39.896Z,12.19
2022-10-09T01:04:07.088Z,12.12
2022-10-09T01:07:11.229Z,12.07
2022-10-09T01:09:44.220Z,12.03
2022-10-09T01:12:12.993Z,11.94
2022-10-09T01:14:50.250Z,11.89
2022-10-09T01:17:36.681Z,11.84
2022-10-09T01:20:28.977Z,11.83
2022-10-09T01:23:35.210Z,11.93
2022-10-09T01:26:39.319Z,11.99
2022-10-09T01:29:08.101Z,12.18
2022-10-09T01:31:38.641Z,12.19
2022-10-09T01:34:06.671Z,12.22
2022-10-09T01:36:34.566Z,12.28
2022-10-09T01:39:03.872Z,12.29
2022-10-09T01:41:31.135Z,12.27
2022-10-09T01:43:58.136Z,12.28
2022-10-09T01:46:30.962Z,12.25
2022-10-09T01:49:23.218Z,12.18
2022-10-09T01:52:11.594Z,12.19
2022-10-09T01:54:41.543Z,12.15
2022-10-09T01:57:10.566Z,12.18
2022-10-09T01:59:39.823Z,12.19
2022-10-09T02:02:07.871Z,12.22
2022-10-09T02:04:37.517Z,12.20
2022-10-09T02:07:05.085Z,12.20
2022-10-09T02:09:32.875Z,12.19
2022-10-09T02:12:04.323Z,12.24
2022-10-09T02:14:31.341Z,12.31
2022-10-09T02:17:05.282Z,12.34
2022-10-09T02:19:46.075Z,12.40
2022-10-09T02:22:17.739Z,12.39
2022-10-09T02:24:45.273Z,12.38
2022-10-09T02:27:13.257Z,12.41
2022-10-09T02:29:42.061Z,12.41
2022-10-09T02:32:10.291Z,12.51
2022-10-09T02:34:37.390Z,12.45
2022-10-09T02:37:04.494Z,12.41
2022-10-09T02:39:31.805Z,12.38
2022-10-09T02:41:58.821Z,12.35
2022-10-09T02:44:25.897Z,12.33
2022-10-09T02:46:53.532Z,12.36
2022-10-09T02:49:20.634Z,12.33
2022-10-09T02:51:47.969Z,12.29
2022-10-09T02:54:15.258Z,12.24
2022-10-09T02:56:42.240Z,12.20
2022-10-09T02:59:09.353Z,12.19
2022-10-09T03:01:36.826Z,12.05
2022-10-09T03:04:04.435Z,11.97
2022-10-09T03:06:31.822Z,11.86
2022-10-09T03:08:59.115Z,11.85
2022-10-09T03:11:26.634Z,11.85
2022-10-09T03:13:54.599Z,11.84
2022-10-09T03:16:24.122Z,11.77
2022-10-09T03:18:52.183Z,11.71
2022-10-09T03:21:21.495Z,11.71
2022-10-09T03:23:50.152Z,11.77
2022-10-09T03:26:20.433Z,11.78
2022-10-09T03:28:49.010Z,11.84
2022-10-09T03:31:39.311Z,11.87
2022-10-09T03:34:04.939Z,11.97
2022-10-09T03:36:32.217Z,11.99
2022-10-09T03:38:59.639Z,12.00
2022-10-09T03:41:26.654Z,12.04
2022-10-09T03:43:53.971Z,12.04
2022-10-09T03:46:21.022Z,12.06
2022-10-09T03:48:48.107Z,12.07
2022-10-09T03:51:15.402Z,12.05
2022-10-09T03:53:42.416Z,12.03
2022-10-09T03:56:09.411Z,12.04
2022-10-09T03:58:36.723Z,12.06
2022-10-09T04:01:03.803Z,12.09
2022-10-09T04:03:31.205Z,12.07
2022-10-09T04:05:58.179Z,12.10
2022-10-09T04:08:25.337Z,12.12
2022-10-09T04:10:59.785Z,12.12
2022-10-09T04:13:27.156Z,12.11
2022-10-09T04:15:55.131Z,12.10
2022-10-09T04:18:22.772Z,12.07
2022-10-09T04:20:51.236Z,12.06
2022-10-09T04:23:19.516Z,12.07
2022-10-09T04:25:46.795Z,12.06
2022-10-09T04:28:14.005Z,12.07
2022-10-09T04:30:41.380Z,12.11
2022-10-09T04:33:12.705Z,12.14
2022-10-09T04:35:44.261Z,12.13
2022-10-09T04:38:11.776Z,12.06
2022-10-09T04:40:38.765Z,12.05
2022-10-09T04:43:05.784Z,12.01
2022-10-09T04:45:33.443Z,11.97
2022-10-09T04:48:00.448Z,11.89
2022-10-09T04:50:27.447Z,11.83
2022-10-09T04:52:58.028Z,11.72
2022-10-09T04:55:25.065Z,11.65
2022-10-09T04:57:52.066Z,11.60
2022-10-09T05:00:19.450Z,11.65
2022-10-09T05:02:46.630Z,11.64
2022-10-09T05:05:14.173Z,11.66
2022-10-09T05:07:41.441Z,11.66
2022-10-09T05:10:08.746Z,11.67
2022-10-09T05:12:35.718Z,11.72
2022-10-09T05:15:03.125Z,11.76
2022-10-09T05:17:30.178Z,11.77
2022-10-09T05:19:57.191Z,11.75
2022-10-09T05:22:24.872Z,11.76
2022-10-09T05:24:51.829Z,11.76
2022-10-09T05:27:18.834Z,11.78
2022-10-09T05:29:46.119Z,11.83
2022-10-09T05:32:13.287Z,11.83
2022-10-09T05:34:40.394Z,11.81
2022-10-09T05:37:07.666Z,11.83
2022-10-09T05:39:36.010Z,11.85
2022-10-09T05:42:03.140Z,11.87
2022-10-09T05:44:30.432Z,11.87
2022-10-09T05:46:57.401Z,11.86
2022-10-09T05:49:24.510Z,11.85
2022-10-09T05:51:51.818Z,11.87
2022-10-09T05:54:18.814Z,11.93
2022-10-09T05:56:46.112Z,11.90
2022-10-09T05:59:15.848Z,11.93
2022-10-09T06:01:45.074Z,11.90
2022-10-09T06:04:15.768Z,11.88
2022-10-09T06:06:43.285Z,11.94
2022-10-09T06:09:11.636Z,11.84
2022-10-09T06:11:39.585Z,11.82
2022-10-09T06:14:09.246Z,11.77
2022-10-09T06:16:42.173Z,11.78
2022-10-09T06:19:12.542Z,11.72
2022-10-09T06:21:39.732Z,11.76
2022-10-09T06:24:07.174Z,11.68
2022-10-09T06:26:34.976Z,11.74
2022-10-09T06:29:02.499Z,11.84
2022-10-09T06:31:32.325Z,11.88
2022-10-09T06:34:01.065Z,12.02
2022-10-09T06:36:30.165Z,12.15
2022-10-09T06:38:59.370Z,12.24
2022-10-09T06:41:28.265Z,12.34
2022-10-09T06:44:00.209Z,12.43
2022-10-09T06:46:39.414Z,12.43
2022-10-09T06:49:07.523Z,12.53
2022-10-09T06:51:35.188Z,12.67
2022-10-09T06:54:05.011Z,12.74
2022-10-09T06:56:32.419Z,12.70
2022-10-09T06:59:00.845Z,12.77
2022-10-09T07:01:32.443Z,12.72
2022-10-09T07:04:06.979Z,12.79
2022-10-09T07:06:37.669Z,12.91
2022-10-09T07:09:07.036Z,13.03
2022-10-09T07:11:39.612Z,13.09
2022-10-09T07:14:08.674Z,13.07
2022-10-09T07:16:37.956Z,13.13
2022-10-09T07:19:07.754Z,13.22
2022-10-09T07:21:35.767Z,13.36
2022-10-09T07:24:03.940Z,13.51
2022-10-09T07:26:32.947Z,13.63
2022-10-09T07:29:00.489Z,13.81
2022-10-09T07:31:27.532Z,13.91
2022-10-09T07:33:56.857Z,13.99
2022-10-09T07:36:24.776Z,14.01
2022-10-09T07:38:53.550Z,14.09
2022-10-09T07:41:21.198Z,14.08
2022-10-09T07:43:48.504Z,14.02
2022-10-09T07:46:17.868Z,14.12
2022-10-09T07:48:45.759Z,14.25
2022-10-09T07:51:18.681Z,14.17
2022-10-09T07:53:46.263Z,14.23
2022-10-09T07:56:17.908Z,14.35
2022-10-09T07:58:53.063Z,14.43
2022-10-09T08:01:21.275Z,14.40
2022-10-09T08:03:49.530Z,14.43
2022-10-09T08:06:17.440Z,14.48
2022-10-09T08:08:44.752Z,14.44
2022-10-09T08:11:14.947Z,14.41
2022-10-09T08:13:42.439Z,14.45
2022-10-09T08:16:09.632Z,14.53
2022-10-09T08:18:37.039Z,14.47
2022-10-09T08:21:14.724Z,14.49
2022-10-09T08:23:42.446Z,14.65
2022-10-09T08:26:18.370Z,14.80
2022-10-09T08:28:57.513Z,14.86
2022-10-09T08:31:25.254Z,15.04
2022-10-09T08:33:56.556Z,14.95
2022-10-09T08:36:24.099Z,15.02
2022-10-09T08:38:51.540Z,15.05
2022-10-09T08:41:34.061Z,15.19
2022-10-09T08:44:13.328Z,15.36
2022-10-09T08:47:10.815Z,15.47
2022-10-09T08:49:37.727Z,15.25
2022-10-09T08:52:21.599Z,15.29
2022-10-09T08:54:50.053Z,15.37
2022-10-09T08:57:17.805Z,15.39
2022-10-09T08:59:44.960Z,15.55
2022-10-09T09:02:38.068Z,15.73
2022-10-09T09:05:53.222Z,15.67
2022-10-09T09:08:31.867Z,15.60
2022-10-09T09:11:21.439Z,15.88
2022-10-09T09:14:21.955Z,16.11
2022-10-09T09:16:54.749Z,16.10
2022-10-09T09:19:33.874Z,16.07
2022-10-09T09:22:01.173Z,16.25
2022-10-09T09:24:35.462Z,16.29
2022-10-09T09:27:13.235Z,16.45
2022-10-09T09:29:45.303Z,16.64
2022-10-09T09:32:22.497Z,16.62
2022-10-09T09:34:54.184Z,16.78
2022-10-09T09:37:21.495Z,16.87
2022-10-09T09:40:34.941Z,16.85
2022-10-09T09:42:35.777Z,16.81
2022-10-09T09:45:05.366Z,16.81
2022-10-09T09:47:40.730Z,16.93
2022-10-09T09:50:28.561Z,17.14
2022-10-09T09:53:01.870Z,17.23
2022-10-09T09:55:31.586Z,17.38
2022-10-09T09:58:07.338Z,17.40
2022-10-09T10:00:35.451Z,17.25
2022-10-09T10:03:17.045Z,16.98
2022-10-09T10:05:44.957Z,17.10
2022-10-09T10:08:22.841Z,17.22
2022-10-09T10:10:51.764Z,17.32
2022-10-09T10:13:21.812Z,17.43
2022-10-09T10:15:54.750Z,17.39
2022-10-09T10:18:24.668Z,17.46
2022-10-09T10:20:55.596Z,17.58
2022-10-09T10:23:33.311Z,17.50
2022-10-09T10:26:07.062Z,17.66
2022-10-09T10:28:41.521Z,17.79
2022-10-09T10:31:15.179Z,17.88
2022-10-09T10:33:43.116Z,17.74
2022-10-09T10:36:11.005Z,18.03
2022-10-09T10:38:55.670Z,18.46
2022-10-09T10:41:32.536Z,18.48
2022-10-09T10:44:08.318Z,18.19
2022-10-09T10:46:44.534Z,18.17
2022-10-09T10:49:11.929Z,17.82
2022-10-09T10:51:45.090Z,17.68
2022-10-09T10:54:27.243Z,17.72
2022-10-09T10:57:05.790Z,17.90
2022-10-09T10:59:39.472Z,18.01
2022-10-09T11:02:09.868Z,18.25
2022-10-09T11:04:47.086Z,18.23
2022-10-09T11:07:17.057Z,18.54
2022-10-09T11:10:11.408Z,18.67
2022-10-09T11:12:53.064Z,18.72
2022-10-09T11:15:34.231Z,18.79
2022-10-09T11:18:16.748Z,18.97
2022-10-09T11:21:19.166Z,18.94
2022-10-09T11:24:11.895Z,19.08
2022-10-09T11:27:50.509Z,19.12
2022-10-09T11:30:18.443Z,19.12
2022-10-09T11:32:45.378Z,19.26
2022-10-09T11:35:12.337Z,19.10
2022-10-09T11:37:42.201Z,19.35
2022-10-09T11:40:15.515Z,19.49
2022-10-09T11:42:43.311Z,19.21
2022-10-09T11:45:27.215Z,19.14
2022-10-09T11:48:08.561Z,19.20
2022-10-09T11:51:06.393Z,19.23
2022-10-09T11:53:37.045Z,19.13
2022-10-09T11:56:06.356Z,19.09
2022-10-09T11:58:34.101Z,18.96
2022-10-09T12:01:13.780Z,18.95
2022-10-09T12:03:41.595Z,18.80
2022-10-09T12:06:13.625Z,18.81
2022-10-09T12:09:02.235Z,18.95
2022-10-09T12:11:29.977Z,18.95
2022-10-09T12:14:02.888Z,18.90
2022-10-09T12:16:40.939Z,19.12
2022-10-09T12:19:20.456Z,19.31
2022-10-09T12:21:51.119Z,18.96
2022-10-09T12:24:22.954Z,18.95
2022-10-09T12:26:51.289Z,18.75
2022-10-09T12:29:27.882Z,18.76
2022-10-09T12:31:58.538Z,18.86
2022-10-09T12:34:36.755Z,18.60
2022-10-09T12:37:36.349Z,18.52
2022-10-09T12:40:10.402Z,18.65
2022-10-09T12:42:37.293Z,18.73
2022-10-09T12:45:05.527Z,18.61
2022-10-09T12:47:34.882Z,18.89
2022-10-09T12:50:17.197Z,18.96
2022-10-09T12:52:57.354Z,19.21
2022-10-09T12:55:36.270Z,18.95
2022-10-09T12:58:12.053Z,18.88
2022-10-09T13:00:39.844Z,18.94
2022-10-09T13:03:37.870Z,19.04
2022-10-09T13:06:08.026Z,19.07
2022-10-09T13:08:38.214Z,19.23
2022-10-09T13:11:35.306Z,19.40
2022-10-09T13:14:03.077Z,19.39
2022-10-09T13:16:44.864Z,19.45
2022-10-09T13:19:38.492Z,19.36
2022-10-09T13:22:16.059Z,19.13
2022-10-09T13:24:43.426Z,19.44
2022-10-09T13:27:12.019Z,19.58
2022-10-09T13:29:39.229Z,19.71
2022-10-09T13:32:08.967Z,20.02
2022-10-09T13:34:35.921Z,20.09
2022-10-09T13:37:02.909Z,20.16
2022-10-09T13:39:30.222Z,19.96
2022-10-09T13:41:59.021Z,20.16
2022-10-09T13:44:26.246Z,20.16
2022-10-09T13:46:53.606Z,20.19
2022-10-09T13:49:20.640Z,19.87
2022-10-09T13:51:47.659Z,19.95
2022-10-09T13:54:17.797Z,19.74
2022-10-09T13:56:44.817Z,19.61
2022-10-09T13:59:12.160Z,19.73
2022-10-09T14:01:39.551Z,19.88
2022-10-09T14:04:06.909Z,19.80
2022-10-09T14:06:36.076Z,19.94
2022-10-09T14:09:05.224Z,19.59
2022-10-09T14:11:32.714Z,19.61
2022-10-09T14:13:59.775Z,19.30
2022-10-09T14:16:27.722Z,19.54
2022-10-09T14:19:03.378Z,19.58
2022-10-09T14:21:30.581Z,19.52
2022-10-09T14:23:59.899Z,19.43
2022-10-09T14:26:27.614Z,19.15
2022-10-09T14:28:59.122Z,19.26
2022-10-09T14:31:26.701Z,18.96
2022-10-09T14:33:56.747Z,19.02
2022-10-09T14:36:23.952Z,18.66
2022-10-09T14:38:51.306Z,18.74
2022-10-09T14:41:18.623Z,18.70
2022-10-09T14:43:46.765Z,18.53
2022-10-09T14:46:17.118Z,18.25
2022-10-09T14:48:45.482Z,18.15
2022-10-09T14:51:15.249Z,18.09
2022-10-09T14:53:42.699Z,18.00
2022-10-09T14:56:16.224Z,18.05
2022-10-09T14:58:43.522Z,18.02
2022-10-09T15:01:15.097Z,18.01
2022-10-09T15:03:42.709Z,18.04
2022-10-09T15:06:11.813Z,18.09
2022-10-09T15:08:40.939Z,18.10
2022-10-09T15:11:09.382Z,18.05
2022-10-09T15:13:37.279Z,17.95
2022-10-09T15:16:07.054Z,17.85
2022-10-09T15:18:34.326Z,17.77
2022-10-09T15:21:01.846Z,17.62
2022-10-09T15:23:29.038Z,17.53
2022-10-09T15:25:57.891Z,17.41
2022-10-09T15:28:25.599Z,17.26
2022-10-09T15:30:59.616Z,17.12
2022-10-09T15:33:27.561Z,16.93
2022-10-09T15:35:54.613Z,16.78
2022-10-09T15:38:23.728Z,16.80
2022-10-09T15:40:55.579Z,16.76
2022-10-09T15:43:26.049Z,16.54
2022-10-09T15:46:01.551Z,16.48
2022-10-09T15:48:28.518Z,16.39
2022-10-09T15:50:55.851Z,16.30
2022-10-09T15:53:24.467Z,16.17
2022-10-09T15:55:53.082Z,15.98
2022-10-09T15:58:20.750Z,15.87
2022-10-09T16:00:49.333Z,15.72
2022-10-09T16:03:18.962Z,15.58
2022-10-09T16:05:48.922Z,15.52
2022-10-09T16:08:17.451Z,15.47
2022-10-09T16:10:49.534Z,15.33
2022-10-09T16:13:16.882Z,15.26
2022-10-09T16:15:47.030Z,15.16
2022-10-09T16:18:15.528Z,15.11
2022-10-09T16:20:42.814Z,15.06
2022-10-09T16:23:10.232Z,15.07
2022-10-09T16:25:38.323Z,15.07
2022-10-09T16:28:07.058Z,15.04
2022-10-09T16:30:39.688Z,15.03
2022-10-09T16:33:12.238Z,15.00
2022-10-09T16:35:40.199Z,14.97
2022-10-09T16:38:07.653Z,14.92
2022-10-09T16:41:00.870Z,14.83
2022-10-09T16:43:22.301Z,14.63
2022-10-09T16:45:49.327Z,14.50
2022-10-09T16:48:16.336Z,14.48
2022-10-09T16:50:43.608Z,14.43
2022-10-09T16:53:10.644Z,14.29
2022-10-09T16:55:37.675Z,14.13
2022-10-09T16:58:05.190Z,14.04
2022-10-09T17:00:32.253Z,14.01
2022-10-09T17:02:59.352Z,14.03
2022-10-09T17:05:28.142Z,13.96
2022-10-09T17:07:55.185Z,14.08
2022-10-09T17:10:22.282Z,14.22
2022-10-09T17:12:49.608Z,14.44
2022-10-09T17:15:16.668Z,14.36
2022-10-09T17:17:43.668Z,14.31
2022-10-09T17:20:10.993Z,14.27
2022-10-09T17:22:38.011Z,14.19
2022-10-09T17:25:05.665Z,14.17
2022-10-09T17:27:33.467Z,14.16
2022-10-09T17:30:00.454Z,14.19
2022-10-09T17:32:27.554Z,14.25
2022-10-09T17:34:54.821Z,14.27
2022-10-09T17:37:21.861Z,14.23
2022-10-09T17:39:52.383Z,14.31
2022-10-09T17:42:19.861Z,14.29
2022-10-09T17:44:46.888Z,14.17
2022-10-09T17:47:13.886Z,14.15
2022-10-09T17:49:41.257Z,14.06
2022-10-09T17:52:08.274Z,14.01
2022-10-09T17:54:35.266Z,13.94
2022-10-09T17:57:05.210Z,13.91
2022-10-09T17:59:34.337Z,13.84
2022-10-09T18:02:01.370Z,13.79
2022-10-09T18:04:28.652Z,13.75
2022-10-09T18:06:55.737Z,13.78
2022-10-09T18:09:22.736Z,13.68
2022-10-09T18:11:50.059Z,13.71
2022-10-09T18:14:17.123Z,13.70
2022-10-09T18:16:44.294Z,13.73
2022-10-09T18:19:14.522Z,13.73
2022-10-09T18:21:44.255Z,13.73
2022-10-09T18:24:12.145Z,13.70
2022-10-09T18:26:39.386Z,13.70
2022-10-09T18:29:06.636Z,13.70
2022-10-09T18:31:34.402Z,13.68
2022-10-09T18:34:01.740Z,13.68
2022-10-09T18:36:34.448Z,13.60
2022-10-09T18:39:13.341Z,13.61
2022-10-09T18:41:40.667Z,13.53
2022-10-09T18:44:17.311Z,13.43
2022-10-09T18:46:56.384Z,13.37
2022-10-09T18:49:27.722Z,13.23
2022-10-09T18:51:54.993Z,13.16
2022-10-09T18:54:24.221Z,13.20
2022-10-09T18:56:51.676Z,13.16
2022-10-09T18:59:21.048Z,13.09
2022-10-09T19:01:48.501Z,13.10
2022-10-09T19:04:15.862Z,12.92
2022-10-09T19:06:42.841Z,12.98
2022-10-09T19:09:10.081Z,13.00
2022-10-09T19:11:37.386Z,12.99
2022-10-09T19:14:04.640Z,12.89
2022-10-09T19:16:33.999Z,12.87
2022-10-09T19:19:01.462Z,12.90
2022-10-09T19:21:28.519Z,12.95
2022-10-09T19:23:55.704Z,12.99
2022-10-09T19:26:23.282Z,12.96
2022-10-09T19:28:50.338Z,12.99
2022-10-09T19:31:18.306Z,13.02
2022-10-09T19:33:45.653Z,13.06
2022-10-09T19:36:13.701Z,13.07
2022-10-09T19:38:41.016Z,13.02
2022-10-09T19:41:10.545Z,12.97
2022-10-09T19:43:38.438Z,13.03
2022-10-09T19:46:11.224Z,13.01
2022-10-09T19:48:38.561Z,12.95
2022-10-09T19:51:14.296Z,12.95
2022-10-09T19:53:43.383Z,12.91
2022-10-09T19:56:17.065Z,12.92
2022-10-09T19:58:44.832Z,12.82
2022-10-09T20:01:17.536Z,12.73
2022-10-09T20:03:45.006Z,12.70
2022-10-09T20:06:12.496Z,12.73
2022-10-09T20:08:40.908Z,12.66
2022-10-09T20:11:11.292Z,12.67
2022-10-09T20:13:39.684Z,12.71
2022-10-09T20:16:10.335Z,12.69
2022-10-09T20:18:42.357Z,12.68
2022-10-09T20:21:14.730Z,12.73
2022-10-09T20:23:44.269Z,12.72
2022-10-09T20:26:13.762Z,12.67
2022-10-09T20:28:41.100Z,12.60
2022-10-09T20:31:14.679Z,12.42
2022-10-09T20:33:42.497Z,12.34
2022-10-09T20:36:28.745Z,12.24
2022-10-09T20:38:57.569Z,12.15
2022-10-09T20:41:25.960Z,12.00
2022-10-09T20:43:54.068Z,11.95
2022-10-09T20:46:23.754Z,11.84
2022-10-09T20:48:52.053Z,11.78
2022-10-09T20:51:19.832Z,11.69
2022-10-09T20:53:51.243Z,11.68
2022-10-09T20:56:19.247Z,11.64
2022-10-09T20:58:46.264Z,11.58
2022-10-09T21:01:15.388Z,11.63
2022-10-09T21:03:43.503Z,11.62
2022-10-09T21:06:13.504Z,11.65
2022-10-09T21:08:40.545Z,11.57
2022-10-09T21:11:10.116Z,11.52
2022-10-09T21:13:38.089Z,11.52
2022-10-09T21:16:06.704Z,11.48
2022-10-09T21:18:34.342Z,11.44
2022-10-09T21:21:19.380Z,11.35
2022-10-09T21:23:51.297Z,11.28
2022-10-09T21:26:19.441Z,11.30
2022-10-09T21:28:47.218Z,11.19
2022-10-09T21:31:23.431Z,11.10
2022-10-09T21:33:50.747Z,11.03
2022-10-09T21:36:51.117Z,11.13
2022-10-09T21:39:27.651Z,11.08
2022-10-09T21:41:55.298Z,11.00
2022-10-09T21:44:22.272Z,10.87
2022-10-09T21:46:49.584Z,10.89
2022-10-09T21:49:23.806Z,10.77
2022-10-09T21:51:51.566Z,10.73
2022-10-09T21:54:18.663Z,10.71
2022-10-09T21:56:45.692Z,10.74
2022-10-09T21:59:13.298Z,10.71
2022-10-09T22:01:40.338Z,10.61
2022-10-09T22:04:08.013Z,10.60
2022-10-09T22:06:34.972Z,10.62
2022-10-09T22:09:01.977Z,10.56
2022-10-09T22:11:29.282Z,10.56
2022-10-09T22:13:56.270Z,10.52
2022-10-09T22:16:23.524Z,10.58
2022-10-09T22:18:50.864Z,10.54
2022-10-09T22:21:18.327Z,10.46
2022-10-09T22:23:45.451Z,10.46
2022-10-09T22:26:18.226Z,10.43
2022-10-09T22:28:47.062Z,10.48
2022-10-09T22:31:19.544Z,10.51
2022-10-09T22:33:54.527Z,10.48
2022-10-09T22:36:24.108Z,10.45
2022-10-09T22:38:55.971Z,10.40
2022-10-09T22:41:24.156Z,10.32
2022-10-09T22:43:53.571Z,10.23
2022-10-09T22:46:23.373Z,10.20
2022-10-09T22:48:51.310Z,10.17
2022-10-09T22:51:19.533Z,10.07
2022-10-09T22:53:47.245Z,10.00
2022-10-09T22:56:22.503Z,9.94
2022-10-09T22:58:51.711Z,9.90
2022-10-09T23:01:29.973Z,9.94
2022-10-09T23:04:02.263Z,9.87
2022-10-09T23:06:29.600Z,9.84
2022-10-09T23:08:57.109Z,9.82
2022-10-09T23:11:24.811Z,9.89
2022-10-09T23:13:56.737Z,9.85
2022-10-09T23:16:24.606Z,9.82
2022-10-09T23:18:51.891Z,9.87
2022-10-09T23:21:21.877Z,9.81
2022-10-09T23:23:49.742Z,9.80
2022-10-09T23:26:22.730Z,9.87
2022-10-09T23:28:51.575Z,9.80
2022-10-09T23:31:19.369Z,9.80
2022-10-09T23:33:46.634Z,9.76
2022-10-09T23:36:16.936Z,9.71
2022-10-09T23:38:44.327Z,9.71
2022-10-09T23:41:14.407Z,9.72
2022-10-09T23:43:42.767Z,9.69
2022-10-09T23:46:13.316Z,9.65
2022-10-09T23:48:40.331Z,9.69
2022-10-09T23:51:07.516Z,9.64
2022-10-09T23:53:35.496Z,9.56
2022-10-09T23:56:26.262Z,9.53
2022-10-09T23:58:54.650Z,9.53
